Archival Weather

Chicago O'Hare International

Chicago, Illinois (KORD)

Report from: Monday, January 23, 2023 6:51 AM CST
Current time: Thursday, July 18, 2024 9:49 PM CDT

Current weather – Weather history – Daily summaries
Weather forecast

Temperature-5.0°C (23.0°F)
Wind chill-10.5°C (13.1°F)
Dew point-7.8°C (18.0°F)
Winds 8 kts (4.1 m/s, 9.2 mph) West-Southwest (250°)
Visibility10 mi. (16.1 km)
Clouds Ceiling: Overcast 900 ft. (274 m)
Altimeter30.06 in.Hg (1018 mB)
Relative humidity81 %
Density altitude-2,603 ft. (-794 m)
Sea-level pressure101.9 kPa (1019 mB, 30.08 in.Hg)
Remarks System requires maintenance
Automated weather observing station with precipitation discriminator
Flight conditions Instrument Meteorological Conditions
Raw dataKORD 231251Z 25008KT 10SM OVC009 M05/M08 A3006 RMK AO2 SLP187 T10501078 $
An error has occurred. This application may no longer respond until reloaded. Reload 🗙